»·PEaware :: N331BK KTNP-CL46

N331BK :: KTNP-CL46

FLIGHT INFORMATION

Flight Status: Arrived
Operator: Privately registered:
United States
More flights under this callsign
Pilot: Patricio R. (14780)
Aircraft: CESSNA 172 SKYHAWK
(C172)
More flights by this aircraft type
Origin: KTNP Twentynine Palms
United States
Destination: CL46 Quail Lake Sky Park
Canada
More flights between these airports :: More routes between these airports
Route: +
File this flight plan on PilotEdge
Remarks:
Altitude:
(Current/Filed)
9,000ft
Speed:
(Current/Filed)
100kts
Departed: 04-Jul-17 04:08 PM
Arrived: 04-Jul-17 05:35 PM
Distance/Time
Traveled:
143nm/1:27
Distance/Time
To Go:
Arrived

Flight Plot

Page will automatically refresh every two minutes.

Flight plan parsing failed; only flown route is shown


Map Options




Map Legend


Flown Route
Filed Route
Departure Airport
Arrival Airport
Navaid (VOR, NDB)
Fix

Horizontal Profiles

Position Reports

Time Latitude Longitude Heading Altitude Ground
Speed
04-Jul-17 16:03 34.135492 -115.944933 181 1891ft 0kts
04-Jul-17 16:04 34.135492 -115.944933 181 1891ft 0kts
04-Jul-17 16:05 34.135492 -115.944933 181 1891ft 0kts
04-Jul-17 16:06 34.135492 -115.944933 181 1891ft 0kts
04-Jul-17 16:07 34.135492 -115.944933 181 1891ft 0kts
04-Jul-17 16:08 34.135492 -115.944933 181 1891ft 0kts
04-Jul-17 16:09 34.135256 -115.944628 92 1891ft 5kts
04-Jul-17 16:10 34.134836 -115.941539 179 1891ft 6kts
04-Jul-17 16:11 34.135725 -115.955719 286 2141ft 69kts
04-Jul-17 16:12 34.143094 -115.979248 286 2783ft 77kts
04-Jul-17 16:13 34.151254 -116.004861 287 3392ft 85kts
04-Jul-17 16:14 34.160084 -116.032093 287 3993ft 88kts
04-Jul-17 16:15 34.168938 -116.059236 287 4584ft 85kts
04-Jul-17 16:16 34.177441 -116.085288 287 5162ft 82kts
04-Jul-17 16:17 34.186049 -116.111707 287 5664ft 86kts
04-Jul-17 16:18 34.194819 -116.138595 287 6160ft 86kts
04-Jul-17 16:19 34.203487 -116.165185 287 6651ft 84kts
04-Jul-17 16:20 34.211972 -116.190836 281 7140ft 80kts
04-Jul-17 16:21 34.219876 -116.215313 280 7623ft 76kts
04-Jul-17 16:22 34.227297 -116.238260 278 8101ft 70kts
04-Jul-17 16:23 34.235119 -116.262755 281 8341ft 92kts
04-Jul-17 16:24 34.245106 -116.293472 283 8461ft 104kts
04-Jul-17 16:25 34.260645 -116.324713 295 8459ft 110kts
04-Jul-17 16:26 34.277147 -116.354622 295 8458ft 104kts
04-Jul-17 16:27 34.293220 -116.383364 294 8456ft 102kts
04-Jul-17 16:28 34.309409 -116.412417 295 8460ft 107kts
04-Jul-17 16:29 34.326287 -116.443202 295 8459ft 111kts
04-Jul-17 16:30 34.343348 -116.474471 295 8459ft 111kts
04-Jul-17 16:31 34.358855 -116.506313 294 8459ft 111kts
04-Jul-17 16:32 34.375932 -116.537633 295 8459ft 111kts
04-Jul-17 16:33 34.393061 -116.569078 295 8459ft 112kts
04-Jul-17 16:34 34.410110 -116.600371 295 8459ft 111kts
04-Jul-17 16:35 34.427516 -116.632538 295 8404ft 113kts
04-Jul-17 16:36 34.443430 -116.661853 294 8407ft 112kts
04-Jul-17 16:37 34.460654 -116.693566 294 8407ft 112kts
04-Jul-17 16:38 34.477838 -116.725213 294 8407ft 112kts
04-Jul-17 16:39 34.492200 -116.751673 294 8407ft 112kts
04-Jul-17 16:40 34.512287 -116.788678 294 8407ft 112kts
04-Jul-17 16:41 34.526643 -116.815117 294 8407ft 112kts
04-Jul-17 16:42 34.543915 -116.846942 294 8407ft 112kts
04-Jul-17 16:43 34.561127 -116.878620 294 8407ft 112kts
04-Jul-17 16:44 34.578380 -116.910366 295 8407ft 112kts
04-Jul-17 16:45 34.595642 -116.942117 295 8407ft 112kts
04-Jul-17 16:46 34.612954 -116.973947 295 8407ft 112kts
04-Jul-17 16:47 34.630225 -117.005711 295 8407ft 113kts
04-Jul-17 16:48 34.646630 -117.037884 268 8403ft 105kts
04-Jul-17 16:49 34.641610 -117.071487 262 8405ft 101kts
04-Jul-17 16:50 34.639944 -117.105131 263 8403ft 99kts
04-Jul-17 16:51 34.639531 -117.139389 261 8407ft 102kts
04-Jul-17 16:52 34.639242 -117.174239 262 8407ft 103kts
04-Jul-17 16:53 34.638986 -117.209153 264 8442ft 100kts
04-Jul-17 16:54 34.638711 -117.242239 272 8485ft 98kts
04-Jul-17 16:55 34.638615 -117.275516 271 8488ft 98kts
04-Jul-17 16:56 34.638449 -117.308932 272 8487ft 98kts
04-Jul-17 16:57 34.638490 -117.342347 262 8484ft 99kts
04-Jul-17 16:58 34.638107 -117.376465 262 8488ft 102kts
04-Jul-17 16:59 34.637802 -117.411313 262 8487ft 103kts
04-Jul-17 17:00 34.637539 -117.446281 262 8487ft 103kts
04-Jul-17 17:01 34.637278 -117.481339 262 8487ft 103kts
04-Jul-17 17:02 34.636937 -117.516279 265 8490ft 102kts
04-Jul-17 17:03 34.636763 -117.550159 266 8484ft 98kts
04-Jul-17 17:04 34.636521 -117.584207 262 8487ft 102kts
04-Jul-17 17:05 34.636170 -117.619089 262 8436ft 106kts
04-Jul-17 17:06 34.635860 -117.653931 261 8434ft 104kts
04-Jul-17 17:07 34.635586 -117.684686 261 8434ft 104kts
04-Jul-17 17:08 34.635260 -117.719954 261 8434ft 104kts
04-Jul-17 17:09 34.634922 -117.755049 261 8434ft 104kts
04-Jul-17 17:10 34.634573 -117.790332 261 8434ft 104kts
04-Jul-17 17:11 34.634214 -117.825455 261 8434ft 104kts
04-Jul-17 17:12 34.633846 -117.860685 261 8434ft 104kts
04-Jul-17 17:13 34.635696 -117.896058 272 8434ft 106kts
04-Jul-17 17:14 34.641231 -117.931510 272 8434ft 107kts
04-Jul-17 17:15 34.646902 -117.967003 272 8434ft 107kts
04-Jul-17 17:16 34.652599 -118.002437 273 8434ft 107kts
04-Jul-17 17:17 34.658328 -118.038018 273 8434ft 107kts
04-Jul-17 17:18 34.664013 -118.073446 273 8434ft 107kts
04-Jul-17 17:19 34.669721 -118.109055 273 8434ft 107kts
04-Jul-17 17:20 34.675415 -118.144635 272 8434ft 107kts
04-Jul-17 17:21 34.681025 -118.180055 272 8434ft 107kts
04-Jul-17 17:22 34.686638 -118.215328 272 8457ft 105kts
04-Jul-17 17:23 34.692248 -118.250611 272 8461ft 106kts
04-Jul-17 17:24 34.697889 -118.286129 272 8461ft 107kts
04-Jul-17 17:25 34.703516 -118.321617 272 8460ft 107kts
04-Jul-17 17:26 34.709609 -118.360165 274 8015ft 120kts
04-Jul-17 17:27 34.715823 -118.399932 277 7522ft 117kts
04-Jul-17 17:28 34.721857 -118.437768 277 7008ft 110kts
04-Jul-17 17:29 34.727507 -118.473659 277 6498ft 107kts
04-Jul-17 17:30 34.733980 -118.508956 284 5989ft 107kts
04-Jul-17 17:31 34.741565 -118.543777 273 5479ft 105kts
04-Jul-17 17:32 34.747143 -118.578878 277 4994ft 104kts
04-Jul-17 17:33 34.752014 -118.610976 278 4970ft 92kts
04-Jul-17 17:34 34.752404 -118.645198 282 4543ft 105kts
04-Jul-17 17:35 34.758480 -118.672569 292 4192ft 85kts
04-Jul-17 17:36 34.763125 -118.700247 288 3961ft 79kts
04-Jul-17 17:37 34.766932 -118.726567 289 3400ft 73kts
04-Jul-17 17:38 34.768032 -118.735635 231 3374ft 3kts
04-Jul-17 17:39 34.768038 -118.735710 304 3374ft 0kts
04-Jul-17 17:40 34.768038 -118.735711 304 3374ft 0kts
04-Jul-17 17:41 34.768038 -118.735711 304 3374ft 0kts

Navigation Log

Ident Type
Flight plan parsing failed, navigation log unavailable